sensor_id;sensor_type;location;lat;lon;timestamp;pressure;altitude;pressure_sealevel;temperature;humidity
29045;BME280;16133;49.486;12.176;2022-08-01T00:00:32;97221.13;;;15.98;100.00
29045;BME280;16133;49.486;12.176;2022-08-01T00:02:58;97217.81;;;15.96;100.00
29045;BME280;16133;49.486;12.176;2022-08-01T00:05:23;97224.19;;;15.95;100.00
29045;BME280;16133;49.486;12.176;2022-08-01T00:07:48;97220.94;;;15.93;100.00
29045;BME280;16133;49.486;12.176;2022-08-01T00:10:16;97213.94;;;15.92;100.00
29045;BME280;16133;49.486;12.176;2022-08-01T00:12:42;97210.69;;;15.90;100.00
29045;BME280;16133;49.486;12.176;2022-08-01T00:15:10;97213.78;;;15.87;100.00
29045;BME280;16133;49.486;12.176;2022-08-01T00:17:35;97213.63;;;15.82;100.00
29045;BME280;16133;49.486;12.176;2022-08-01T00:20:02;97211.59;;;15.77;100.00
29045;BME280;16133;49.486;12.176;2022-08-01T00:22:30;97205.03;;;15.73;100.00
29045;BME280;16133;49.486;12.176;2022-08-01T00:24:55;97209.41;;;15.67;100.00
29045;BME280;16133;49.486;12.176;2022-08-01T00:27:20;97219.91;;;15.62;100.00
29045;BME280;16133;49.486;12.176;2022-08-01T00:29:46;97209.66;;;15.59;100.00
29045;BME280;16133;49.486;12.176;2022-08-01T00:32:11;97212.34;;;15.53;100.00
29045;BME280;16133;49.486;12.176;2022-08-01T00:34:36;97198.59;;;15.49;100.00
29045;BME280;16133;49.486;12.176;2022-08-01T00:37:02;97211.78;;;15.44;100.00
29045;BME280;16133;49.486;12.176;2022-08-01T00:39:27;97208.66;;;15.47;100.00
29045;BME280;16133;49.486;12.176;2022-08-01T00:41:52;97211.13;;;15.49;100.00
29045;BME280;16133;49.486;12.176;2022-08-01T00:44:18;97212.16;;;15.48;100.00
29045;BME280;16133;49.486;12.176;2022-08-01T00:46:43;97208.28;;;15.44;100.00
29045;BME280;16133;49.486;12.176;2022-08-01T00:49:09;97208.09;;;15.39;100.00
29045;BME280;16133;49.486;12.176;2022-08-01T00:51:34;97200.72;;;15.34;100.00
29045;BME280;16133;49.486;12.176;2022-08-01T00:54:00;97195.81;;;15.31;100.00
29045;BME280;16133;49.486;12.176;2022-08-01T00:56:26;97201.16;;;15.31;100.00
29045;BME280;16133;49.486;12.176;2022-08-01T00:58:53;97201.16;;;15.31;100.00
29045;BME280;16133;49.486;12.176;2022-08-01T01:01:19;97197.44;;;15.32;100.00
29045;BME280;16133;49.486;12.176;2022-08-01T01:03:46;97192.94;;;15.32;100.00
29045;BME280;16133;49.486;12.176;2022-08-01T01:06:33;97207.72;;;15.35;100.00
29045;BME280;16133;49.486;12.176;2022-08-01T01:17:16;97202.22;;;15.23;100.00
29045;BME280;16133;49.486;12.176;2022-08-01T01:19:47;97201.63;;;15.21;100.00
29045;BME280;16133;49.486;12.176;2022-08-01T01:22:21;97199.59;;;15.17;100.00
29045;BME280;16133;49.486;12.176;2022-08-01T01:28:17;97205.38;;;15.07;100.00
29045;BME280;16133;49.486;12.176;2022-08-01T01:30:49;97203.78;;;15.00;100.00
29045;BME280;16133;49.486;12.176;2022-08-01T01:33:16;97207.31;;;14.94;100.00
29045;BME280;16133;49.486;12.176;2022-08-01T01:35:52;97203.84;;;14.87;100.00
29045;BME280;16133;49.486;12.176;2022-08-01T01:38:21;97204.66;;;14.80;100.00
29045;BME280;16133;49.486;12.176;2022-08-01T01:40:50;97202.63;;;14.76;100.00
29045;BME280;16133;49.486;12.176;2022-08-01T01:43:17;97209.63;;;14.70;100.00
29045;BME280;16133;49.486;12.176;2022-08-01T01:45:47;97209.44;;;14.65;100.00
29045;BME280;16133;49.486;12.176;2022-08-01T01:48:18;97197.97;;;14.58;100.00
29045;BME280;16133;49.486;12.176;2022-08-01T01:50:46;97196.16;;;14.52;100.00
29045;BME280;16133;49.486;12.176;2022-08-01T01:53:14;97198.63;;;14.47;100.00
29045;BME280;16133;49.486;12.176;2022-08-01T01:55:43;97199.47;;;14.41;100.00
29045;BME280;16133;49.486;12.176;2022-08-01T01:58:13;97198.22;;;14.37;100.00
29045;BME280;16133;49.486;12.176;2022-08-01T02:00:41;97196.34;;;14.31;100.00
29045;BME280;16133;49.486;12.176;2022-08-01T02:03:08;97195.75;;;14.29;100.00
29045;BME280;16133;49.486;12.176;2022-08-01T02:05:36;97214.63;;;14.27;100.00
29045;BME280;16133;49.486;12.176;2022-08-01T02:08:04;97208.47;;;14.27;100.00
29045;BME280;16133;49.486;12.176;2022-08-01T02:10:31;97215.03;;;14.24;100.00
29045;BME280;16133;49.486;12.176;2022-08-01T02:12:59;97215.25;;;14.23;100.00
29045;BME280;16133;49.486;12.176;2022-08-01T02:15:26;97216.88;;;14.24;100.00
29045;BME280;16133;49.486;12.176;2022-08-01T02:17:54;97211.34;;;14.25;100.00
29045;BME280;16133;49.486;12.176;2022-08-01T02:20:20;97211.75;;;14.29;100.00
29045;BME280;16133;49.486;12.176;2022-08-01T02:23:18;97209.09;;;14.29;100.00
29045;BME280;16133;49.486;12.176;2022-08-01T02:25:48;97213.38;;;14.30;100.00
29045;BME280;16133;49.486;12.176;2022-08-01T02:28:17;97220.38;;;14.31;100.00
29045;BME280;16133;49.486;12.176;2022-08-01T02:30:50;97225.69;;;14.31;100.00
29045;BME280;16133;49.486;12.176;2022-08-01T02:33:23;97222.63;;;14.34;100.00
29045;BME280;16133;49.486;12.176;2022-08-01T02:35:52;97225.94;;;14.36;100.00
29045;BME280;16133;49.486;12.176;2022-08-01T02:38:22;97225.31;;;14.41;100.00
29045;BME280;16133;49.486;12.176;2022-08-01T02:40:50;97222.84;;;14.46;100.00
29045;BME280;16133;49.486;12.176;2022-08-01T02:43:21;97228.81;;;14.48;100.00
29045;BME280;16133;49.486;12.176;2022-08-01T02:45:53;97231.06;;;14.51;100.00
29045;BME280;16133;49.486;12.176;2022-08-01T02:48:20;97233.53;;;14.52;100.00
29045;BME280;16133;49.486;12.176;2022-08-01T02:50:49;97243.16;;;14.53;100.00
29045;BME280;16133;49.486;12.176;2022-08-01T02:53:18;97241.31;;;14.54;100.00
29045;BME280;16133;49.486;12.176;2022-08-01T02:55:44;97242.75;;;14.56;100.00
29045;BME280;16133;49.486;12.176;2022-08-01T02:58:14;97243.78;;;14.55;100.00
29045;BME280;16133;49.486;12.176;2022-08-01T03:00:41;97238.88;;;14.52;100.00
29045;BME280;16133;49.486;12.176;2022-08-01T03:03:07;97240.91;;;14.50;100.00
29045;BME280;16133;49.486;12.176;2022-08-01T03:05:34;97233.91;;;14.49;100.00
29045;BME280;16133;49.486;12.176;2022-08-01T03:08:00;97236.81;;;14.48;100.00
29045;BME280;16133;49.486;12.176;2022-08-01T03:10:27;97236.81;;;14.48;100.00
29045;BME280;16133;49.486;12.176;2022-08-01T03:12:54;97246.25;;;14.50;100.00
29045;BME280;16133;49.486;12.176;2022-08-01T03:15:21;97240.91;;;14.50;100.00
29045;BME280;16133;49.486;12.176;2022-08-01T03:17:48;97233.50;;;14.46;100.00
29045;BME280;16133;49.486;12.176;2022-08-01T03:20:15;97244.00;;;14.47;100.00
29045;BME280;16133;49.486;12.176;2022-08-01T03:22:43;97244.19;;;14.46;100.00
29045;BME280;16133;49.486;12.176;2022-08-01T03:25:12;97248.94;;;14.44;100.00
29045;BME280;16133;49.486;12.176;2022-08-01T03:27:40;97256.31;;;14.42;100.00
29045;BME280;16133;49.486;12.176;2022-08-01T03:30:07;97252.22;;;14.39;100.00
29045;BME280;16133;49.486;12.176;2022-08-01T03:32:33;97253.88;;;14.40;100.00
29045;BME280;16133;49.486;12.176;2022-08-01T03:34:58;97266.78;;;14.43;100.00
29045;BME280;16133;49.486;12.176;2022-08-01T03:37:27;97271.31;;;14.43;100.00
29045;BME280;16133;49.486;12.176;2022-08-01T03:39:58;97271.31;;;14.43;100.00
29045;BME280;16133;49.486;12.176;2022-08-01T03:42:34;97272.97;;;14.44;100.00
29045;BME280;16133;49.486;12.176;2022-08-01T03:45:05;97271.72;;;14.46;100.00
29045;BME280;16133;49.486;12.176;2022-08-01T03:47:34;97271.28;;;14.49;100.00
29045;BME280;16133;49.486;12.176;2022-08-01T03:50:02;97268.63;;;14.49;100.00
29045;BME280;16133;49.486;12.176;2022-08-01T03:52:30;97279.31;;;14.49;100.00
29045;BME280;16133;49.486;12.176;2022-08-01T03:54:59;97284.44;;;14.51;100.00
29045;BME280;16133;49.486;12.176;2022-08-01T03:57:28;97273.56;;;14.52;100.00
29045;BME280;16133;49.486;12.176;2022-08-01T03:59:58;97276.84;;;14.54;100.00
29045;BME280;16133;49.486;12.176;2022-08-01T04:02:26;97273.75;;;14.57;100.00
29045;BME280;16133;49.486;12.176;2022-08-01T04:04:52;97271.72;;;14.59;100.00
29045;BME280;16133;49.486;12.176;2022-08-01T04:07:36;97275.38;;;14.65;100.00
29045;BME280;16133;49.486;12.176;2022-08-01T04:10:04;97277.44;;;14.69;100.00
29045;BME280;16133;49.486;12.176;2022-08-01T04:12:30;97280.72;;;14.78;100.00
29045;BME280;16133;49.486;12.176;2022-08-01T04:14:55;97280.69;;;14.84;100.00
29045;BME280;16133;49.486;12.176;2022-08-01T04:17:20;97279.44;;;14.94;100.00
29045;BME280;16133;49.486;12.176;2022-08-01T04:19:46;97291.75;;;15.01;100.00
29045;BME280;16133;49.486;12.176;2022-08-01T04:22:13;97286.75;;;15.11;100.00
29045;BME280;16133;49.486;12.176;2022-08-01T04:24:41;97298.25;;;15.25;100.00
29045;BME280;16133;49.486;12.176;2022-08-01T04:27:13;97294.47;;;15.39;100.00
29045;BME280;16133;49.486;12.176;2022-08-01T04:29:41;97302.25;;;15.54;100.00
29045;BME280;16133;49.486;12.176;2022-08-01T04:32:08;97308.38;;;15.67;100.00
29045;BME280;16133;49.486;12.176;2022-08-01T04:34:38;97310.38;;;15.78;100.00
29045;BME280;16133;49.486;12.176;2022-08-01T04:37:07;97316.06;;;15.89;100.00
29045;BME280;16133;49.486;12.176;2022-08-01T04:39:34;97319.06;;;15.99;100.00
29045;BME280;16133;49.486;12.176;2022-08-01T04:42:04;97319.06;;;16.05;100.00
29045;BME280;16133;49.486;12.176;2022-08-01T04:44:30;97319.81;;;16.12;100.00
29045;BME280;16133;49.486;12.176;2022-08-01T04:46:59;97325.75;;;16.21;100.00
29045;BME280;16133;49.486;12.176;2022-08-01T04:49:26;97322.34;;;16.32;100.00
29045;BME280;16133;49.486;12.176;2022-08-01T04:51:55;97326.75;;;16.51;100.00
29045;BME280;16133;49.486;12.176;2022-08-01T04:54:34;97334.56;;;16.78;100.00
29045;BME280;16133;49.486;12.176;2022-08-01T04:57:05;97331.19;;;17.07;100.00
29045;BME280;16133;49.486;12.176;2022-08-01T04:59:32;97333.06;;;17.43;100.00
29045;BME280;16133;49.486;12.176;2022-08-01T05:02:08;97336.81;;;17.90;100.00
29045;BME280;16133;49.486;12.176;2022-08-01T05:04:34;97342.13;;;18.49;100.00
29045;BME280;16133;49.486;12.176;2022-08-01T05:07:00;97341.72;;;19.10;100.00
29045;BME280;16133;49.486;12.176;2022-08-01T05:09:26;97347.69;;;19.76;100.00
29045;BME280;16133;49.486;12.176;2022-08-01T05:11:51;97348.88;;;20.36;96.62
29045;BME280;16133;49.486;12.176;2022-08-01T05:14:16;97349.13;;;21.02;92.02
29045;BME280;16133;49.486;12.176;2022-08-01T05:16:42;97349.34;;;21.55;86.93
29045;BME280;16133;49.486;12.176;2022-08-01T05:19:08;97355.09;;;22.02;82.21
29045;BME280;16133;49.486;12.176;2022-08-01T05:21:34;97357.59;;;22.35;78.91
29045;BME280;16133;49.486;12.176;2022-08-01T05:23:59;97357.78;;;22.56;77.27
29045;BME280;16133;49.486;12.176;2022-08-01T05:26:25;97367.41;;;22.68;75.27
29045;BME280;16133;49.486;12.176;2022-08-01T05:28:50;97354.19;;;22.72;74.88
29045;BME280;16133;49.486;12.176;2022-08-01T05:31:15;97354.09;;;22.67;72.98
29045;BME280;16133;49.486;12.176;2022-08-01T05:33:41;97361.03;;;22.58;72.95
29045;BME280;16133;49.486;12.176;2022-08-01T05:36:06;97358.84;;;22.50;73.46
29045;BME280;16133;49.486;12.176;2022-08-01T05:38:31;97365.16;;;22.33;73.81
29045;BME280;16133;49.486;12.176;2022-08-01T05:40:57;97369.72;;;22.06;75.44
29045;BME280;16133;49.486;12.176;2022-08-01T05:43:22;97358.16;;;21.89;76.63
29045;BME280;16133;49.486;12.176;2022-08-01T05:45:48;97362.88;;;21.77;77.36
29045;BME280;16133;49.486;12.176;2022-08-01T05:48:13;97364.50;;;21.78;77.99
29045;BME280;16133;49.486;12.176;2022-08-01T05:50:38;97361.34;;;21.86;78.52
29045;BME280;16133;49.486;12.176;2022-08-01T05:53:04;97364.25;;;22.01;78.04
29045;BME280;16133;49.486;12.176;2022-08-01T05:55:29;97353.91;;;22.20;77.62
29045;BME280;16133;49.486;12.176;2022-08-01T05:57:54;97355.47;;;22.37;74.32
29045;BME280;16133;49.486;12.176;2022-08-01T06:00:20;97356.63;;;22.73;73.44
29045;BME280;16133;49.486;12.176;2022-08-01T06:02:46;97356.66;;;23.10;72.17
29045;BME280;16133;49.486;12.176;2022-08-01T06:05:11;97355.31;;;23.55;68.94
29045;BME280;16133;49.486;12.176;2022-08-01T06:07:37;97352.50;;;23.97;66.84
29045;BME280;16133;49.486;12.176;2022-08-01T06:10:04;97352.63;;;24.42;64.20
29045;BME280;16133;49.486;12.176;2022-08-01T06:12:32;97363.53;;;24.77;62.00
29045;BME280;16133;49.486;12.176;2022-08-01T06:14:57;97358.13;;;24.93;60.57
29045;BME280;16133;49.486;12.176;2022-08-01T06:17:23;97361.63;;;25.03;60.78
29045;BME280;16133;49.486;12.176;2022-08-01T06:19:48;97361.91;;;24.97;61.75
29045;BME280;16133;49.486;12.176;2022-08-01T06:22:13;97361.38;;;24.95;62.13
29045;BME280;16133;49.486;12.176;2022-08-01T06:24:39;97363.28;;;24.84;60.61
29045;BME280;16133;49.486;12.176;2022-08-01T06:27:04;97357.03;;;24.84;60.08
29045;BME280;16133;49.486;12.176;2022-08-01T06:29:30;97357.78;;;24.54;61.49
29045;BME280;16133;49.486;12.176;2022-08-01T06:31:57;97358.88;;;24.38;61.93
29045;BME280;16133;49.486;12.176;2022-08-01T06:34:22;97359.38;;;24.24;61.87
29045;BME280;16133;49.486;12.176;2022-08-01T06:36:48;97368.06;;;24.21;62.62
29045;BME280;16133;49.486;12.176;2022-08-01T06:39:13;97373.34;;;23.96;62.52
29045;BME280;16133;49.486;12.176;2022-08-01T06:41:39;97368.69;;;23.81;63.14
29045;BME280;16133;49.486;12.176;2022-08-01T06:44:07;97364.84;;;23.67;64.15
29045;BME280;16133;49.486;12.176;2022-08-01T06:46:34;97373.72;;;23.58;64.09
29045;BME280;16133;49.486;12.176;2022-08-01T06:48:59;97370.06;;;23.84;64.32
29045;BME280;16133;49.486;12.176;2022-08-01T06:51:25;97367.53;;;24.30;63.09
29045;BME280;16133;49.486;12.176;2022-08-01T06:53:50;97376.28;;;24.57;60.49
29045;BME280;16133;49.486;12.176;2022-08-01T06:56:16;97377.31;;;24.36;60.41
29045;BME280;16133;49.486;12.176;2022-08-01T06:58:41;97381.63;;;24.32;61.46
29045;BME280;16133;49.486;12.176;2022-08-01T07:01:06;97389.22;;;24.35;61.14
29045;BME280;16133;49.486;12.176;2022-08-01T07:03:33;97386.00;;;24.38;61.08
29045;BME280;16133;49.486;12.176;2022-08-01T07:05:59;97395.47;;;24.35;61.73
29045;BME280;16133;49.486;12.176;2022-08-01T07:08:24;97401.72;;;24.36;62.83
29045;BME280;16133;49.486;12.176;2022-08-01T07:10:50;97392.56;;;24.72;60.71
29045;BME280;16133;49.486;12.176;2022-08-01T07:13:15;97399.13;;;25.01;59.78
29045;BME280;16133;49.486;12.176;2022-08-01T07:15:46;97406.72;;;25.25;58.87
29045;BME280;16133;49.486;12.176;2022-08-01T07:18:11;97404.78;;;25.35;58.43
29045;BME280;16133;49.486;12.176;2022-08-01T07:20:37;97405.31;;;25.57;57.62
29045;BME280;16133;49.486;12.176;2022-08-01T07:23:02;97404.75;;;25.65;57.15
29045;BME280;16133;49.486;12.176;2022-08-01T07:25:28;97387.34;;;25.72;56.62
29045;BME280;16133;49.486;12.176;2022-08-01T07:27:53;97405.25;;;25.83;55.89
29045;BME280;16133;49.486;12.176;2022-08-01T07:30:19;97402.03;;;25.60;56.19
29045;BME280;16133;49.486;12.176;2022-08-01T07:32:44;97410.75;;;25.57;57.12
29045;BME280;16133;49.486;12.176;2022-08-01T07:35:10;97409.38;;;25.70;56.01
29045;BME280;16133;49.486;12.176;2022-08-01T07:37:35;97408.28;;;25.71;55.52
29045;BME280;16133;49.486;12.176;2022-08-01T07:40:01;97411.00;;;25.61;55.64
29045;BME280;16133;49.486;12.176;2022-08-01T07:42:29;97392.84;;;25.56;56.03
29045;BME280;16133;49.486;12.176;2022-08-01T07:44:54;97410.97;;;25.81;56.00
29045;BME280;16133;49.486;12.176;2022-08-01T07:47:26;97411.72;;;25.92;55.56
29045;BME280;16133;49.486;12.176;2022-08-01T07:49:52;97406.53;;;26.00;55.50
29045;BME280;16133;49.486;12.176;2022-08-01T07:52:23;97405.94;;;26.13;54.60
29045;BME280;16133;49.486;12.176;2022-08-01T07:54:49;97414.34;;;26.22;54.91
29045;BME280;16133;49.486;12.176;2022-08-01T07:57:14;97418.47;;;26.20;54.10
29045;BME280;16133;49.486;12.176;2022-08-01T07:59:40;97402.75;;;26.01;54.43
29045;BME280;16133;49.486;12.176;2022-08-01T08:02:05;97418.25;;;26.01;54.09
29045;BME280;16133;49.486;12.176;2022-08-01T08:04:30;97424.00;;;25.89;54.87
29045;BME280;16133;49.486;12.176;2022-08-01T08:06:56;97416.09;;;25.88;54.81
29045;BME280;16133;49.486;12.176;2022-08-01T08:09:21;97417.78;;;25.68;55.58
29045;BME280;16133;49.486;12.176;2022-08-01T08:11:48;97416.69;;;25.75;55.85
29045;BME280;16133;49.486;12.176;2022-08-01T08:14:13;97421.59;;;25.73;55.54
29045;BME280;16133;49.486;12.176;2022-08-01T08:16:40;97414.81;;;25.65;55.58
29045;BME280;16133;49.486;12.176;2022-08-01T08:19:05;97419.72;;;25.58;55.58
29045;BME280;16133;49.486;12.176;2022-08-01T08:21:30;97413.47;;;25.62;55.43
29045;BME280;16133;49.486;12.176;2022-08-01T08:23:56;97409.13;;;25.61;56.40
29045;BME280;16133;49.486;12.176;2022-08-01T08:26:40;97417.50;;;25.75;55.15
29045;BME280;16133;49.486;12.176;2022-08-01T08:29:06;97406.91;;;25.74;55.05
29045;BME280;16133;49.486;12.176;2022-08-01T08:31:31;97412.66;;;25.67;55.49
29045;BME280;16133;49.486;12.176;2022-08-01T08:33:56;97414.75;;;25.90;54.88
29045;BME280;16133;49.486;12.176;2022-08-01T08:36:22;97414.75;;;25.90;54.51
29045;BME280;16133;49.486;12.176;2022-08-01T08:38:47;97414.50;;;25.87;54.56
29045;BME280;16133;49.486;12.176;2022-08-01T08:41:14;97409.88;;;25.77;54.95
29045;BME280;16133;49.486;12.176;2022-08-01T08:43:39;97405.53;;;25.81;54.77
29045;BME280;16133;49.486;12.176;2022-08-01T08:46:06;97406.78;;;26.04;54.88
29045;BME280;16133;49.486;12.176;2022-08-01T08:48:33;97408.38;;;26.15;54.05
29045;BME280;16133;49.486;12.176;2022-08-01T08:51:00;97404.78;;;26.35;53.80
29045;BME280;16133;49.486;12.176;2022-08-01T08:53:27;97403.34;;;26.47;53.35
29045;BME280;16133;49.486;12.176;2022-08-01T08:55:54;97402.91;;;26.74;53.44
29045;BME280;16133;49.486;12.176;2022-08-01T08:58:21;97406.84;;;26.97;52.62
29045;BME280;16133;49.486;12.176;2022-08-01T09:00:50;97404.56;;;27.09;51.80
29045;BME280;16133;49.486;12.176;2022-08-01T09:03:15;97410.38;;;27.31;51.24
29045;BME280;16133;49.486;12.176;2022-08-01T09:05:41;97418.44;;;27.46;49.70
29045;BME280;16133;49.486;12.176;2022-08-01T09:08:08;97423.81;;;27.18;51.63
29045;BME280;16133;49.486;12.176;2022-08-01T09:10:34;97421.63;;;27.20;51.13
29045;BME280;16133;49.486;12.176;2022-08-01T09:15:43;97425.09;;;27.30;51.92
29045;BME280;16133;49.486;12.176;2022-08-01T09:18:26;97424.81;;;27.32;51.17
29045;BME280;16133;49.486;12.176;2022-08-01T09:23:42;97417.75;;;27.26;51.09
29045;BME280;16133;49.486;12.176;2022-08-01T09:26:09;97412.16;;;27.41;50.54
29045;BME280;16133;49.486;12.176;2022-08-01T09:28:35;97420.81;;;27.53;49.57
29045;BME280;16133;49.486;12.176;2022-08-01T09:31:10;97422.44;;;27.54;50.00
29045;BME280;16133;49.486;12.176;2022-08-01T09:36:17;97423.09;;;27.70;49.46
29045;BME280;16133;49.486;12.176;2022-08-01T09:38:42;97424.66;;;27.76;49.45
29045;BME280;16133;49.486;12.176;2022-08-01T09:41:08;97424.63;;;27.81;49.72
29045;BME280;16133;49.486;12.176;2022-08-01T09:43:33;97420.56;;;27.78;49.15
29045;BME280;16133;49.486;12.176;2022-08-01T09:46:04;97424.78;;;27.89;49.50
29045;BME280;16133;49.486;12.176;2022-08-01T09:48:33;97424.19;;;27.69;48.15
29045;BME280;16133;49.486;12.176;2022-08-01T09:50:59;97417.09;;;27.39;48.60
29045;BME280;16133;49.486;12.176;2022-08-01T09:53:25;97422.78;;;27.14;49.22
29045;BME280;16133;49.486;12.176;2022-08-01T09:55:50;97420.34;;;27.12;49.88
29045;BME280;16133;49.486;12.176;2022-08-01T09:58:17;97427.91;;;27.20;50.25
29045;BME280;16133;49.486;12.176;2022-08-01T10:00:57;97423.81;;;27.18;50.24
29045;BME280;16133;49.486;12.176;2022-08-01T10:03:26;97416.91;;;27.01;50.27
29045;BME280;16133;49.486;12.176;2022-08-01T10:05:52;97413.84;;;26.64;51.47
29045;BME280;16133;49.486;12.176;2022-08-01T10:08:22;97412.25;;;26.58;51.90
29045;BME280;16133;49.486;12.176;2022-08-01T10:11:10;97417.28;;;26.41;51.67
29045;BME280;16133;49.486;12.176;2022-08-01T10:13:36;97416.84;;;26.03;53.17
29045;BME280;16133;49.486;12.176;2022-08-01T10:16:02;97410.19;;;25.76;53.90
29045;BME280;16133;49.486;12.176;2022-08-01T10:18:31;97412.38;;;25.53;55.20
29045;BME280;16133;49.486;12.176;2022-08-01T10:20:58;97409.97;;;25.21;55.77
29045;BME280;16133;49.486;12.176;2022-08-01T10:23:31;97404.53;;;25.01;56.34
29045;BME280;16133;49.486;12.176;2022-08-01T10:25:59;97406.72;;;24.89;56.22
29045;BME280;16133;49.486;12.176;2022-08-01T10:28:26;97413.75;;;24.95;55.47
29045;BME280;16133;49.486;12.176;2022-08-01T10:30:58;97397.97;;;24.67;55.16
29045;BME280;16133;49.486;12.176;2022-08-01T10:33:24;97399.06;;;24.66;55.22
29045;BME280;16133;49.486;12.176;2022-08-01T10:35:50;97394.72;;;24.70;56.19
29045;BME280;16133;49.486;12.176;2022-08-01T10:38:16;97391.47;;;24.68;55.42
29045;BME280;16133;49.486;12.176;2022-08-01T10:40:42;97374.38;;;24.72;55.35
29045;BME280;16133;49.486;12.176;2022-08-01T10:43:09;97380.03;;;24.61;55.65
29045;BME280;16133;49.486;12.176;2022-08-01T10:45:35;97377.63;;;24.69;55.22
29045;BME280;16133;49.486;12.176;2022-08-01T10:50:38;97363.25;;;25.19;54.64
29045;BME280;16133;49.486;12.176;2022-08-01T10:53:26;97376.75;;;25.70;53.28
29045;BME280;16133;49.486;12.176;2022-08-01T10:56:01;97363.97;;;26.35;51.45
29045;BME280;16133;49.486;12.176;2022-08-01T10:58:28;97383.16;;;26.97;50.24
29045;BME280;16133;49.486;12.176;2022-08-01T11:04:08;97364.44;;;27.48;46.38
29045;BME280;16133;49.486;12.176;2022-08-01T11:09:04;97358.31;;;27.33;46.96
29045;BME280;16133;49.486;12.176;2022-08-01T11:11:30;97360.38;;;27.41;47.14
29045;BME280;16133;49.486;12.176;2022-08-01T11:16:33;97357.38;;;27.42;47.08
29045;BME280;16133;49.486;12.176;2022-08-01T11:18:59;97356.81;;;27.45;45.91
29045;BME280;16133;49.486;12.176;2022-08-01T11:27:19;97361.66;;;26.96;46.23
29045;BME280;16133;49.486;12.176;2022-08-01T11:32:55;97349.03;;;26.71;47.93
29045;BME280;16133;49.486;12.176;2022-08-01T11:35:22;97347.84;;;26.82;47.51
29045;BME280;16133;49.486;12.176;2022-08-01T11:37:50;97356.53;;;26.89;46.28
29045;BME280;16133;49.486;12.176;2022-08-01T11:40:27;97363.59;;;26.51;47.46
29045;BME280;16133;49.486;12.176;2022-08-01T11:43:17;97355.19;;;26.48;46.97
29045;BME280;16133;49.486;12.176;2022-08-01T11:45:54;97358.41;;;26.55;47.42
29045;BME280;16133;49.486;12.176;2022-08-01T11:48:25;97349.41;;;26.93;47.61
29045;BME280;16133;49.486;12.176;2022-08-01T11:50:52;97344.78;;;27.23;47.62
29045;BME280;16133;49.486;12.176;2022-08-01T11:53:18;97343.09;;;27.79;46.73
29045;BME280;16133;49.486;12.176;2022-08-01T11:55:53;97355.59;;;28.04;45.01
29045;BME280;16133;49.486;12.176;2022-08-01T11:58:23;97353.44;;;28.25;44.24
29045;BME280;16133;49.486;12.176;2022-08-01T12:00:53;97351.38;;;28.73;44.79
29045;BME280;16133;49.486;12.176;2022-08-01T12:03:31;97343.91;;;29.11;43.61
29045;BME280;16133;49.486;12.176;2022-08-01T12:05:58;97332.78;;;29.39;42.00
29045;BME280;16133;49.486;12.176;2022-08-01T12:08:28;97344.44;;;29.72;40.48
29045;BME280;16133;49.486;12.176;2022-08-01T12:10:54;97339.88;;;29.54;41.04
29045;BME280;16133;49.486;12.176;2022-08-01T12:13:20;97335.72;;;29.43;41.34
29045;BME280;16133;49.486;12.176;2022-08-01T12:15:46;97332.66;;;29.31;40.88
29045;BME280;16133;49.486;12.176;2022-08-01T12:18:12;97320.06;;;29.16;40.86
29045;BME280;16133;49.486;12.176;2022-08-01T12:20:40;97326.41;;;29.12;41.15
29045;BME280;16133;49.486;12.176;2022-08-01T12:23:09;97336.34;;;29.21;40.51
29045;BME280;16133;49.486;12.176;2022-08-01T12:25:36;97329.63;;;29.00;40.72
29045;BME280;16133;49.486;12.176;2022-08-01T12:28:06;97324.44;;;28.66;41.66
29045;BME280;16133;49.486;12.176;2022-08-01T12:30:33;97326.22;;;28.57;42.26
29045;BME280;16133;49.486;12.176;2022-08-01T12:33:05;97324.78;;;28.60;41.78
29045;BME280;16133;49.486;12.176;2022-08-01T12:35:32;97321.28;;;28.59;41.05
29045;BME280;16133;49.486;12.176;2022-08-01T12:38:00;97334.63;;;28.79;40.76
29045;BME280;16133;49.486;12.176;2022-08-01T12:40:32;97327.03;;;29.09;41.29
29045;BME280;16133;49.486;12.176;2022-08-01T12:43:00;97318.78;;;29.41;39.61
29045;BME280;16133;49.486;12.176;2022-08-01T12:45:29;97327.72;;;29.60;38.93
29045;BME280;16133;49.486;12.176;2022-08-01T12:47:56;97325.50;;;29.62;38.10
29045;BME280;16133;49.486;12.176;2022-08-01T12:50:27;97328.72;;;29.64;38.49
29045;BME280;16133;49.486;12.176;2022-08-01T12:52:53;97320.53;;;29.64;38.70
29045;BME280;16133;49.486;12.176;2022-08-01T12:55:20;97334.09;;;29.83;39.62
29045;BME280;16133;49.486;12.176;2022-08-01T12:58:05;97339.19;;;29.89;39.60
29045;BME280;16133;49.486;12.176;2022-08-01T13:00:32;97332.97;;;29.98;39.13
29045;BME280;16133;49.486;12.176;2022-08-01T13:03:04;97332.19;;;29.97;39.44
29045;BME280;16133;49.486;12.176;2022-08-01T13:05:49;97333.19;;;30.15;39.10
29045;BME280;16133;49.486;12.176;2022-08-01T13:08:21;97326.47;;;30.21;39.15
29045;BME280;16133;49.486;12.176;2022-08-01T13:10:47;97326.47;;;30.21;39.73
29045;BME280;16133;49.486;12.176;2022-08-01T13:13:14;97307.09;;;30.31;39.37
29045;BME280;16133;49.486;12.176;2022-08-01T13:15:41;97326.78;;;30.55;38.50
29045;BME280;16133;49.486;12.176;2022-08-01T13:18:28;97333.38;;;30.18;39.03
29045;BME280;16133;49.486;12.176;2022-08-01T13:21:15;97325.69;;;29.66;40.12
29045;BME280;16133;49.486;12.176;2022-08-01T13:26:51;97332.03;;;28.88;41.88
29045;BME280;16133;49.486;12.176;2022-08-01T13:29:21;97343.03;;;28.64;41.84
29045;BME280;16133;49.486;12.176;2022-08-01T13:31:48;97328.88;;;28.43;42.30